Denver, CO

4:28 AM MST on November 28, 2014 (GMT -0700)
Geography and Env. Sciences, CU Denver | Change Station
CLOSE
Current Station
Personal Weather Station
Location: Denver, CO
Elevation: 5225 ft
Nearby Weather Stations

Elev 5225 ft 39.75 °N, 105.00 °W | Updated 3 minutes ago

Partly Cloudy
Partly Cloudy
47.5 °F
Feels Like 46 °F
N
4.0
Wind Variable Wind from ESE
Gusts 17.0 mph

Today
High -- | Low -- °F
--% Chance of Precip.
Yesterday
High -- | Low -- °F
Precip. -- in
6:58 AM 4:36 PM
Waxing Crescent, 39% visible
Pressure 29.96 in
Visibility 10.0 miles
Clouds Few 15000 ft
Few 22000 ft
Windchill 46 °F
Dew Point 17 °F
Humidity 29%
Rainfall 0.00 in
Snow Depth Not available.
UV 0.0 out of 12
Pollen .10 out of 12
Air Quality Not available.
Flu Activity Not available.
METAR KAPA 281053Z 16009KT 10SM FEW150 FEW220 06/M09 A3002 RMK AO2 SLP146 T00611094

More Conditions Fewer Conditions

Pressure 29.96 in
Visibility 10.0 miles
Clouds Few 15000 ft
Few 22000 ft
Windchill 46 °F
Dew Point 17 °F
Humidity 29%
Rainfall 0.00 in
Snow Depth Not available.
UV 0.0 out of 12
Pollen .10 out of 12
Air Quality Not available.
Flu Activity Not available.
METAR KAPA 281053Z 16009KT 10SM FEW150 FEW220 06/M09 A3002 RMK AO2 SLP146 T00611094

More Conditions Fewer Conditions

10-Day Weather Forecast

Almanac

Astronomy

Nov. 28, 2014 Rise Set
Actual Time
Civil Twilight
Nautical Twilight
Astronomical Twilight
Moon
Length of Visible Light
Length of Day
Tomorrow will be .
, % of the Moon is Illuminated

Today's Extremes

State Highs State Lows

Community

WunderPhotos

Upload Photos

1,774,192 photos uploaded!

WunderBlogs® & News

Nearby

Air Quality

  Air Quality AQ Index Pollutant
Not available.

Snow Depth

Station Depth Elevation

Earthquake Activity

City Distance Mag. Time & Date
Minimum magnitude displayed is 2.5.

Coastal Water Temperatures

Place Temperature

Nearby Weather Stations